sensor_id;sensor_type;location;lat;lon;timestamp;P1;durP1;ratioP1;P2;durP2;ratioP2
31210;SDS011;17836;50.948;3.946;2022-10-13T00:01:36;10.27;;;8.37;;
31210;SDS011;17836;50.948;3.946;2022-10-13T00:04:02;11.35;;;8.65;;
31210;SDS011;17836;50.948;3.946;2022-10-13T00:06:27;16.50;;;9.23;;
31210;SDS011;17836;50.948;3.946;2022-10-13T00:08:52;11.07;;;8.77;;
31210;SDS011;17836;50.948;3.946;2022-10-13T00:11:19;18.42;;;8.57;;
31210;SDS011;17836;50.948;3.946;2022-10-13T00:13:44;15.80;;;9.45;;
31210;SDS011;17836;50.948;3.946;2022-10-13T00:16:11;12.85;;;9.10;;
31210;SDS011;17836;50.948;3.946;2022-10-13T00:18:37;15.13;;;9.80;;
31210;SDS011;17836;50.948;3.946;2022-10-13T00:21:05;13.02;;;8.30;;
31210;SDS011;17836;50.948;3.946;2022-10-13T00:23:32;11.52;;;8.27;;
31210;SDS011;17836;50.948;3.946;2022-10-13T00:25:57;10.82;;;8.35;;
31210;SDS011;17836;50.948;3.946;2022-10-13T00:28:23;11.90;;;8.32;;
31210;SDS011;17836;50.948;3.946;2022-10-13T00:30:48;12.50;;;8.67;;
31210;SDS011;17836;50.948;3.946;2022-10-13T00:33:14;13.30;;;8.60;;
31210;SDS011;17836;50.948;3.946;2022-10-13T00:35:43;10.20;;;7.70;;
31210;SDS011;17836;50.948;3.946;2022-10-13T00:38:09;15.13;;;8.50;;
31210;SDS011;17836;50.948;3.946;2022-10-13T00:40:44;17.70;;;8.40;;
31210;SDS011;17836;50.948;3.946;2022-10-13T00:46:04;10.23;;;7.70;;
31210;SDS011;17836;50.948;3.946;2022-10-13T00:48:29;18.13;;;8.97;;
31210;SDS011;17836;50.948;3.946;2022-10-13T00:50:55;11.93;;;8.25;;
31210;SDS011;17836;50.948;3.946;2022-10-13T00:53:22;14.32;;;7.97;;
31210;SDS011;17836;50.948;3.946;2022-10-13T00:55:49;9.57;;;7.22;;
31210;SDS011;17836;50.948;3.946;2022-10-13T00:58:15;10.00;;;7.72;;
31210;SDS011;17836;50.948;3.946;2022-10-13T01:00:44;13.50;;;8.13;;
31210;SDS011;17836;50.948;3.946;2022-10-13T01:03:10;14.35;;;7.97;;
31210;SDS011;17836;50.948;3.946;2022-10-13T01:05:35;15.50;;;7.93;;
31210;SDS011;17836;50.948;3.946;2022-10-13T01:08:02;10.93;;;8.02;;
31210;SDS011;17836;50.948;3.946;2022-10-13T01:15:30;18.23;;;8.00;;
31210;SDS011;17836;50.948;3.946;2022-10-13T01:20:49;18.27;;;8.98;;
31210;SDS011;17836;50.948;3.946;2022-10-13T01:28:46;15.20;;;8.38;;
31210;SDS011;17836;50.948;3.946;2022-10-13T01:33:49;11.18;;;8.48;;
31210;SDS011;17836;50.948;3.946;2022-10-13T01:38:46;10.57;;;8.38;;
31210;SDS011;17836;50.948;3.946;2022-10-13T01:41:19;13.02;;;8.18;;
31210;SDS011;17836;50.948;3.946;2022-10-13T01:43:50;14.10;;;9.10;;
31210;SDS011;17836;50.948;3.946;2022-10-13T01:46:20;14.45;;;8.55;;
31210;SDS011;17836;50.948;3.946;2022-10-13T01:48:46;13.85;;;9.15;;
31210;SDS011;17836;50.948;3.946;2022-10-13T01:51:15;15.68;;;8.45;;
31210;SDS011;17836;50.948;3.946;2022-10-13T01:53:42;13.70;;;8.40;;
31210;SDS011;17836;50.948;3.946;2022-10-13T01:56:08;11.00;;;8.50;;
31210;SDS011;17836;50.948;3.946;2022-10-13T01:58:34;12.43;;;7.47;;
31210;SDS011;17836;50.948;3.946;2022-10-13T02:03:44;15.82;;;8.70;;
31210;SDS011;17836;50.948;3.946;2022-10-13T02:06:14;14.38;;;9.07;;
31210;SDS011;17836;50.948;3.946;2022-10-13T02:08:51;12.38;;;8.60;;
31210;SDS011;17836;50.948;3.946;2022-10-13T02:11:20;14.45;;;8.63;;
31210;SDS011;17836;50.948;3.946;2022-10-13T02:13:51;11.05;;;8.52;;
31210;SDS011;17836;50.948;3.946;2022-10-13T02:16:18;18.95;;;10.15;;
31210;SDS011;17836;50.948;3.946;2022-10-13T02:18:47;12.20;;;8.23;;
31210;SDS011;17836;50.948;3.946;2022-10-13T02:21:13;17.73;;;9.18;;
31210;SDS011;17836;50.948;3.946;2022-10-13T02:23:40;14.07;;;8.48;;
31210;SDS011;17836;50.948;3.946;2022-10-13T02:26:06;11.88;;;9.02;;
31210;SDS011;17836;50.948;3.946;2022-10-13T02:28:32;19.35;;;9.10;;
31210;SDS011;17836;50.948;3.946;2022-10-13T02:31:00;15.63;;;8.60;;
31210;SDS011;17836;50.948;3.946;2022-10-13T02:33:25;12.02;;;8.80;;
31210;SDS011;17836;50.948;3.946;2022-10-13T02:35:51;13.65;;;8.60;;
31210;SDS011;17836;50.948;3.946;2022-10-13T02:38:17;11.13;;;9.43;;
31210;SDS011;17836;50.948;3.946;2022-10-13T02:40:42;14.77;;;9.57;;
31210;SDS011;17836;50.948;3.946;2022-10-13T02:43:07;18.97;;;9.30;;
31210;SDS011;17836;50.948;3.946;2022-10-13T02:45:33;14.70;;;9.65;;
31210;SDS011;17836;50.948;3.946;2022-10-13T02:47:58;14.20;;;9.00;;
31210;SDS011;17836;50.948;3.946;2022-10-13T02:50:23;13.70;;;8.88;;
31210;SDS011;17836;50.948;3.946;2022-10-13T02:52:49;12.20;;;8.40;;
31210;SDS011;17836;50.948;3.946;2022-10-13T02:55:14;13.00;;;8.65;;
31210;SDS011;17836;50.948;3.946;2022-10-13T02:57:39;16.33;;;9.17;;
31210;SDS011;17836;50.948;3.946;2022-10-13T03:00:05;13.13;;;8.85;;
31210;SDS011;17836;50.948;3.946;2022-10-13T03:02:31;13.85;;;9.43;;
31210;SDS011;17836;50.948;3.946;2022-10-13T03:04:56;13.15;;;9.13;;
31210;SDS011;17836;50.948;3.946;2022-10-13T03:07:21;14.43;;;9.77;;
31210;SDS011;17836;50.948;3.946;2022-10-13T03:09:47;15.00;;;9.55;;
31210;SDS011;17836;50.948;3.946;2022-10-13T03:12:12;15.43;;;9.00;;
31210;SDS011;17836;50.948;3.946;2022-10-13T03:14:38;18.80;;;9.30;;
31210;SDS011;17836;50.948;3.946;2022-10-13T03:17:03;21.45;;;9.73;;
31210;SDS011;17836;50.948;3.946;2022-10-13T03:19:28;14.35;;;8.95;;
31210;SDS011;17836;50.948;3.946;2022-10-13T03:21:54;16.15;;;8.57;;
31210;SDS011;17836;50.948;3.946;2022-10-13T03:24:19;18.73;;;9.33;;
31210;SDS011;17836;50.948;3.946;2022-10-13T03:26:45;19.38;;;9.70;;
31210;SDS011;17836;50.948;3.946;2022-10-13T03:29:12;13.30;;;9.63;;
31210;SDS011;17836;50.948;3.946;2022-10-13T03:31:38;16.58;;;9.65;;
31210;SDS011;17836;50.948;3.946;2022-10-13T03:34:03;13.93;;;9.33;;
31210;SDS011;17836;50.948;3.946;2022-10-13T03:36:29;16.30;;;10.02;;
31210;SDS011;17836;50.948;3.946;2022-10-13T03:38:54;14.93;;;10.18;;
31210;SDS011;17836;50.948;3.946;2022-10-13T03:41:20;15.50;;;9.85;;
31210;SDS011;17836;50.948;3.946;2022-10-13T03:43:46;15.52;;;10.77;;
31210;SDS011;17836;50.948;3.946;2022-10-13T03:46:12;13.80;;;10.13;;
31210;SDS011;17836;50.948;3.946;2022-10-13T03:48:38;17.30;;;10.85;;
31210;SDS011;17836;50.948;3.946;2022-10-13T03:51:04;18.80;;;10.50;;
31210;SDS011;17836;50.948;3.946;2022-10-13T03:53:30;20.38;;;10.90;;
31210;SDS011;17836;50.948;3.946;2022-10-13T03:55:56;16.85;;;10.60;;
31210;SDS011;17836;50.948;3.946;2022-10-13T03:58:22;17.92;;;11.63;;
31210;SDS011;17836;50.948;3.946;2022-10-13T04:00:48;18.85;;;10.80;;
31210;SDS011;17836;50.948;3.946;2022-10-13T04:03:14;20.98;;;11.80;;
31210;SDS011;17836;50.948;3.946;2022-10-13T04:05:39;18.10;;;11.98;;
31210;SDS011;17836;50.948;3.946;2022-10-13T04:08:04;16.20;;;10.80;;
31210;SDS011;17836;50.948;3.946;2022-10-13T04:10:30;22.67;;;12.03;;
31210;SDS011;17836;50.948;3.946;2022-10-13T04:12:55;15.70;;;11.27;;
31210;SDS011;17836;50.948;3.946;2022-10-13T04:15:21;21.52;;;13.32;;
31210;SDS011;17836;50.948;3.946;2022-10-13T04:17:46;17.57;;;13.27;;
31210;SDS011;17836;50.948;3.946;2022-10-13T04:20:11;16.25;;;12.45;;
31210;SDS011;17836;50.948;3.946;2022-10-13T04:22:37;25.40;;;13.25;;
31210;SDS011;17836;50.948;3.946;2022-10-13T04:25:02;26.57;;;13.67;;
31210;SDS011;17836;50.948;3.946;2022-10-13T04:27:27;19.00;;;13.60;;
31210;SDS011;17836;50.948;3.946;2022-10-13T04:29:52;27.63;;;15.30;;
31210;SDS011;17836;50.948;3.946;2022-10-13T04:32:18;22.30;;;14.03;;
31210;SDS011;17836;50.948;3.946;2022-10-13T04:34:44;27.90;;;14.95;;
31210;SDS011;17836;50.948;3.946;2022-10-13T04:37:09;27.73;;;14.20;;
31210;SDS011;17836;50.948;3.946;2022-10-13T04:39:34;29.35;;;15.02;;
31210;SDS011;17836;50.948;3.946;2022-10-13T04:42:02;22.25;;;14.60;;
31210;SDS011;17836;50.948;3.946;2022-10-13T04:44:27;25.00;;;14.40;;
31210;SDS011;17836;50.948;3.946;2022-10-13T04:46:53;21.33;;;15.07;;
31210;SDS011;17836;50.948;3.946;2022-10-13T04:49:18;26.83;;;15.35;;
31210;SDS011;17836;50.948;3.946;2022-10-13T04:51:43;25.37;;;15.23;;
31210;SDS011;17836;50.948;3.946;2022-10-13T04:54:08;23.03;;;14.77;;
31210;SDS011;17836;50.948;3.946;2022-10-13T04:56:34;21.73;;;14.40;;
31210;SDS011;17836;50.948;3.946;2022-10-13T04:59:00;26.88;;;14.98;;
31210;SDS011;17836;50.948;3.946;2022-10-13T05:01:26;23.45;;;15.68;;
31210;SDS011;17836;50.948;3.946;2022-10-13T05:03:52;24.30;;;15.73;;
31210;SDS011;17836;50.948;3.946;2022-10-13T05:06:19;27.50;;;15.25;;
31210;SDS011;17836;50.948;3.946;2022-10-13T05:08:44;25.58;;;14.85;;
31210;SDS011;17836;50.948;3.946;2022-10-13T05:11:10;32.93;;;16.17;;
31210;SDS011;17836;50.948;3.946;2022-10-13T05:13:35;20.53;;;14.10;;
31210;SDS011;17836;50.948;3.946;2022-10-13T05:16:04;27.10;;;14.50;;
31210;SDS011;17836;50.948;3.946;2022-10-13T05:18:30;25.38;;;15.63;;
31210;SDS011;17836;50.948;3.946;2022-10-13T05:20:55;23.63;;;15.47;;
31210;SDS011;17836;50.948;3.946;2022-10-13T05:23:20;18.37;;;13.87;;
31210;SDS011;17836;50.948;3.946;2022-10-13T05:25:46;21.08;;;14.88;;
31210;SDS011;17836;50.948;3.946;2022-10-13T05:28:11;26.73;;;15.73;;
31210;SDS011;17836;50.948;3.946;2022-10-13T05:30:36;24.27;;;16.13;;
31210;SDS011;17836;50.948;3.946;2022-10-13T05:33:02;25.00;;;15.90;;
31210;SDS011;17836;50.948;3.946;2022-10-13T05:35:27;25.47;;;15.63;;
31210;SDS011;17836;50.948;3.946;2022-10-13T05:37:52;34.43;;;16.20;;
31210;SDS011;17836;50.948;3.946;2022-10-13T05:40:18;28.95;;;15.75;;
31210;SDS011;17836;50.948;3.946;2022-10-13T05:42:45;21.10;;;15.02;;
31210;SDS011;17836;50.948;3.946;2022-10-13T05:45:11;23.38;;;15.27;;
31210;SDS011;17836;50.948;3.946;2022-10-13T05:47:36;24.30;;;15.23;;
31210;SDS011;17836;50.948;3.946;2022-10-13T05:50:01;29.37;;;15.97;;
31210;SDS011;17836;50.948;3.946;2022-10-13T05:52:27;31.10;;;15.40;;
31210;SDS011;17836;50.948;3.946;2022-10-13T05:54:54;28.95;;;15.65;;
31210;SDS011;17836;50.948;3.946;2022-10-13T05:57:21;25.35;;;15.55;;
31210;SDS011;17836;50.948;3.946;2022-10-13T05:59:49;25.90;;;16.08;;
31210;SDS011;17836;50.948;3.946;2022-10-13T06:02:15;24.27;;;15.38;;
31210;SDS011;17836;50.948;3.946;2022-10-13T06:04:45;25.55;;;16.80;;
31210;SDS011;17836;50.948;3.946;2022-10-13T06:07:11;24.63;;;15.50;;
31210;SDS011;17836;50.948;3.946;2022-10-13T06:09:37;28.48;;;16.83;;
31210;SDS011;17836;50.948;3.946;2022-10-13T06:12:04;31.60;;;16.88;;
31210;SDS011;17836;50.948;3.946;2022-10-13T06:14:30;25.50;;;16.05;;
31210;SDS011;17836;50.948;3.946;2022-10-13T06:16:56;29.67;;;16.05;;
31210;SDS011;17836;50.948;3.946;2022-10-13T06:19:21;23.67;;;15.35;;
31210;SDS011;17836;50.948;3.946;2022-10-13T06:21:47;27.48;;;16.02;;
31210;SDS011;17836;50.948;3.946;2022-10-13T06:24:13;26.67;;;15.25;;
31210;SDS011;17836;50.948;3.946;2022-10-13T06:26:38;25.30;;;15.60;;
31210;SDS011;17836;50.948;3.946;2022-10-13T06:29:04;27.88;;;15.70;;
31210;SDS011;17836;50.948;3.946;2022-10-13T06:31:29;26.25;;;14.90;;
31210;SDS011;17836;50.948;3.946;2022-10-13T06:33:54;25.83;;;16.83;;
31210;SDS011;17836;50.948;3.946;2022-10-13T06:36:20;32.00;;;16.37;;
31210;SDS011;17836;50.948;3.946;2022-10-13T06:38:45;27.98;;;15.82;;
31210;SDS011;17836;50.948;3.946;2022-10-13T06:41:11;23.73;;;14.88;;
31210;SDS011;17836;50.948;3.946;2022-10-13T06:43:38;29.23;;;15.70;;
31210;SDS011;17836;50.948;3.946;2022-10-13T06:46:03;28.45;;;15.45;;
31210;SDS011;17836;50.948;3.946;2022-10-13T06:48:28;25.25;;;14.60;;
31210;SDS011;17836;50.948;3.946;2022-10-13T06:50:54;21.40;;;14.97;;
31210;SDS011;17836;50.948;3.946;2022-10-13T06:53:19;28.20;;;15.38;;
31210;SDS011;17836;50.948;3.946;2022-10-13T06:55:45;27.30;;;14.38;;
31210;SDS011;17836;50.948;3.946;2022-10-13T06:58:11;21.60;;;14.85;;
31210;SDS011;17836;50.948;3.946;2022-10-13T07:00:39;32.05;;;15.50;;
31210;SDS011;17836;50.948;3.946;2022-10-13T07:03:04;22.33;;;13.85;;
31210;SDS011;17836;50.948;3.946;2022-10-13T07:05:30;29.40;;;15.65;;
31210;SDS011;17836;50.948;3.946;2022-10-13T07:07:56;20.83;;;13.75;;
31210;SDS011;17836;50.948;3.946;2022-10-13T07:10:21;24.03;;;13.43;;
31210;SDS011;17836;50.948;3.946;2022-10-13T07:12:46;24.27;;;14.02;;
31210;SDS011;17836;50.948;3.946;2022-10-13T07:15:12;25.90;;;13.77;;
31210;SDS011;17836;50.948;3.946;2022-10-13T07:17:37;25.47;;;14.53;;
31210;SDS011;17836;50.948;3.946;2022-10-13T07:20:03;25.45;;;13.55;;
31210;SDS011;17836;50.948;3.946;2022-10-13T07:22:29;25.55;;;15.52;;
31210;SDS011;17836;50.948;3.946;2022-10-13T07:24:54;25.58;;;14.18;;
31210;SDS011;17836;50.948;3.946;2022-10-13T07:27:19;18.33;;;13.70;;
31210;SDS011;17836;50.948;3.946;2022-10-13T07:29:45;22.17;;;13.23;;
31210;SDS011;17836;50.948;3.946;2022-10-13T07:32:10;27.40;;;14.07;;
31210;SDS011;17836;50.948;3.946;2022-10-13T07:34:36;25.38;;;14.30;;
31210;SDS011;17836;50.948;3.946;2022-10-13T07:37:01;19.25;;;13.07;;
31210;SDS011;17836;50.948;3.946;2022-10-13T07:39:27;19.88;;;13.75;;
31210;SDS011;17836;50.948;3.946;2022-10-13T07:41:52;18.70;;;12.93;;
31210;SDS011;17836;50.948;3.946;2022-10-13T07:44:17;18.20;;;13.32;;
31210;SDS011;17836;50.948;3.946;2022-10-13T07:46:43;24.45;;;13.73;;
31210;SDS011;17836;50.948;3.946;2022-10-13T07:49:08;21.80;;;12.60;;
31210;SDS011;17836;50.948;3.946;2022-10-13T07:51:33;24.40;;;13.63;;
31210;SDS011;17836;50.948;3.946;2022-10-13T07:53:59;25.57;;;15.07;;
31210;SDS011;17836;50.948;3.946;2022-10-13T07:56:24;19.50;;;13.05;;
31210;SDS011;17836;50.948;3.946;2022-10-13T07:58:50;20.77;;;13.27;;
31210;SDS011;17836;50.948;3.946;2022-10-13T08:01:15;21.33;;;13.90;;
31210;SDS011;17836;50.948;3.946;2022-10-13T08:03:42;27.15;;;16.10;;
31210;SDS011;17836;50.948;3.946;2022-10-13T08:06:07;21.77;;;13.02;;
31210;SDS011;17836;50.948;3.946;2022-10-13T08:08:33;20.25;;;12.80;;
31210;SDS011;17836;50.948;3.946;2022-10-13T08:11:02;20.17;;;12.50;;
31210;SDS011;17836;50.948;3.946;2022-10-13T08:13:28;20.10;;;12.13;;
31210;SDS011;17836;50.948;3.946;2022-10-13T08:15:53;18.90;;;12.30;;
31210;SDS011;17836;50.948;3.946;2022-10-13T08:18:19;15.57;;;10.97;;
31210;SDS011;17836;50.948;3.946;2022-10-13T08:20:44;16.65;;;11.85;;
31210;SDS011;17836;50.948;3.946;2022-10-13T08:23:10;18.77;;;11.70;;
31210;SDS011;17836;50.948;3.946;2022-10-13T08:25:36;14.32;;;10.77;;
31210;SDS011;17836;50.948;3.946;2022-10-13T08:28:03;22.75;;;11.60;;
31210;SDS011;17836;50.948;3.946;2022-10-13T08:30:28;17.85;;;11.38;;
31210;SDS011;17836;50.948;3.946;2022-10-13T08:32:53;13.73;;;10.57;;
31210;SDS011;17836;50.948;3.946;2022-10-13T08:35:18;16.45;;;11.38;;
31210;SDS011;17836;50.948;3.946;2022-10-13T08:37:44;18.30;;;11.87;;
31210;SDS011;17836;50.948;3.946;2022-10-13T08:40:13;21.23;;;11.10;;
31210;SDS011;17836;50.948;3.946;2022-10-13T08:42:41;22.52;;;12.20;;
31210;SDS011;17836;50.948;3.946;2022-10-13T08:45:09;20.35;;;11.95;;
31210;SDS011;17836;50.948;3.946;2022-10-13T08:50:03;17.55;;;11.50;;
31210;SDS011;17836;50.948;3.946;2022-10-13T08:52:41;19.13;;;12.23;;
31210;SDS011;17836;50.948;3.946;2022-10-13T08:55:10;18.25;;;11.90;;
31210;SDS011;17836;50.948;3.946;2022-10-13T08:57:39;17.92;;;12.25;;
31210;SDS011;17836;50.948;3.946;2022-10-13T09:00:05;16.05;;;11.50;;
31210;SDS011;17836;50.948;3.946;2022-10-13T09:02:36;23.13;;;12.27;;
31210;SDS011;17836;50.948;3.946;2022-10-13T09:05:02;20.23;;;11.93;;
31210;SDS011;17836;50.948;3.946;2022-10-13T09:07:30;17.60;;;10.15;;
31210;SDS011;17836;50.948;3.946;2022-10-13T09:09:56;25.42;;;13.23;;
31210;SDS011;17836;50.948;3.946;2022-10-13T09:12:22;17.70;;;10.90;;
31210;SDS011;17836;50.948;3.946;2022-10-13T09:14:57;21.60;;;12.00;;
31210;SDS011;17836;50.948;3.946;2022-10-13T09:17:23;14.82;;;10.60;;
31210;SDS011;17836;50.948;3.946;2022-10-13T09:25:15;21.88;;;9.75;;
31210;SDS011;17836;50.948;3.946;2022-10-13T09:27:49;14.35;;;11.07;;
31210;SDS011;17836;50.948;3.946;2022-10-13T09:30:34;16.35;;;11.00;;
31210;SDS011;17836;50.948;3.946;2022-10-13T09:35:28;19.10;;;10.70;;
31210;SDS011;17836;50.948;3.946;2022-10-13T09:40:32;17.35;;;11.65;;
31210;SDS011;17836;50.948;3.946;2022-10-13T09:42:59;15.80;;;11.02;;
31210;SDS011;17836;50.948;3.946;2022-10-13T09:45:25;13.52;;;11.38;;
31210;SDS011;17836;50.948;3.946;2022-10-13T09:47:57;16.52;;;10.63;;
31210;SDS011;17836;50.948;3.946;2022-10-13T09:50:26;14.55;;;11.07;;
31210;SDS011;17836;50.948;3.946;2022-10-13T09:52:54;20.02;;;12.07;;
31210;SDS011;17836;50.948;3.946;2022-10-13T09:55:34;16.98;;;10.48;;
31210;SDS011;17836;50.948;3.946;2022-10-13T09:58:11;16.08;;;10.27;;
31210;SDS011;17836;50.948;3.946;2022-10-13T10:00:38;17.92;;;10.90;;
31210;SDS011;17836;50.948;3.946;2022-10-13T10:05:43;13.70;;;10.75;;
31210;SDS011;17836;50.948;3.946;2022-10-13T10:08:12;17.38;;;10.68;;
31210;SDS011;17836;50.948;3.946;2022-10-13T10:10:39;18.15;;;10.52;;
31210;SDS011;17836;50.948;3.946;2022-10-13T10:13:07;14.48;;;10.32;;
31210;SDS011;17836;50.948;3.946;2022-10-13T10:18:18;15.20;;;10.40;;
31210;SDS011;17836;50.948;3.946;2022-10-13T10:30:30;19.00;;;11.00;;
31210;SDS011;17836;50.948;3.946;2022-10-13T10:35:40;20.60;;;11.43;;
31210;SDS011;17836;50.948;3.946;2022-10-13T10:40:49;21.07;;;11.57;;
31210;SDS011;17836;50.948;3.946;2022-10-13T10:46:03;18.15;;;11.02;;
31210;SDS011;17836;50.948;3.946;2022-10-13T10:48:35;12.75;;;11.30;;
31210;SDS011;17836;50.948;3.946;2022-10-13T10:51:02;16.33;;;12.07;;
31210;SDS011;17836;50.948;3.946;2022-10-13T10:53:35;19.02;;;13.02;;
31210;SDS011;17836;50.948;3.946;2022-10-13T10:56:06;23.20;;;12.75;;
31210;SDS011;17836;50.948;3.946;2022-10-13T10:58:38;20.30;;;13.05;;
31210;SDS011;17836;50.948;3.946;2022-10-13T11:06:05;16.80;;;13.53;;
31210;SDS011;17836;50.948;3.946;2022-10-13T11:08:45;21.55;;;13.13;;
31210;SDS011;17836;50.948;3.946;2022-10-13T11:13:59;30.33;;;13.90;;
31210;SDS011;17836;50.948;3.946;2022-10-13T11:21:20;19.55;;;13.55;;
31210;SDS011;17836;50.948;3.946;2022-10-13T11:23:47;19.27;;;13.57;;
31210;SDS011;17836;50.948;3.946;2022-10-13T11:26:29;21.00;;;13.73;;
31210;SDS011;17836;50.948;3.946;2022-10-13T11:28:56;28.00;;;14.23;;
31210;SDS011;17836;50.948;3.946;2022-10-13T11:31:22;19.55;;;13.15;;
31210;SDS011;17836;50.948;3.946;2022-10-13T11:33:52;19.33;;;12.90;;
31210;SDS011;17836;50.948;3.946;2022-10-13T11:38:55;20.20;;;12.60;;
31210;SDS011;17836;50.948;3.946;2022-10-13T11:41:35;24.10;;;13.93;;
31210;SDS011;17836;50.948;3.946;2022-10-13T11:44:06;19.67;;;13.82;;
31210;SDS011;17836;50.948;3.946;2022-10-13T11:49:09;19.40;;;13.82;;
31210;SDS011;17836;50.948;3.946;2022-10-13T11:54:15;18.52;;;13.85;;
31210;SDS011;17836;50.948;3.946;2022-10-13T11:56:47;22.75;;;13.73;;
31210;SDS011;17836;50.948;3.946;2022-10-13T11:59:30;20.02;;;14.00;;
31210;SDS011;17836;50.948;3.946;2022-10-13T12:02:11;20.00;;;14.48;;
31210;SDS011;17836;50.948;3.946;2022-10-13T12:04:38;16.48;;;13.85;;
31210;SDS011;17836;50.948;3.946;2022-10-13T12:07:05;13.75;;;12.38;;
31210;SDS011;17836;50.948;3.946;2022-10-13T12:09:31;17.95;;;12.23;;
31210;SDS011;17836;50.948;3.946;2022-10-13T12:14:36;18.05;;;12.57;;
31210;SDS011;17836;50.948;3.946;2022-10-13T12:17:02;19.77;;;11.98;;
31210;SDS011;17836;50.948;3.946;2022-10-13T12:19:28;18.23;;;13.88;;
31210;SDS011;17836;50.948;3.946;2022-10-13T12:21:55;17.23;;;12.18;;
31210;SDS011;17836;50.948;3.946;2022-10-13T12:24:22;16.98;;;13.02;;
31210;SDS011;17836;50.948;3.946;2022-10-13T12:26:50;18.05;;;12.73;;
31210;SDS011;17836;50.948;3.946;2022-10-13T12:29:15;14.30;;;12.95;;
31210;SDS011;17836;50.948;3.946;2022-10-13T12:31:45;15.43;;;12.88;;
31210;SDS011;17836;50.948;3.946;2022-10-13T12:36:41;16.75;;;12.75;;
31210;SDS011;17836;50.948;3.946;2022-10-13T12:39:09;15.23;;;12.88;;
31210;SDS011;17836;50.948;3.946;2022-10-13T12:41:37;14.07;;;12.45;;
31210;SDS011;17836;50.948;3.946;2022-10-13T12:44:04;17.10;;;13.40;;
31210;SDS011;17836;50.948;3.946;2022-10-13T12:46:37;17.15;;;13.30;;
31210;SDS011;17836;50.948;3.946;2022-10-13T12:49:04;19.20;;;14.80;;
31210;SDS011;17836;50.948;3.946;2022-10-13T12:51:29;14.88;;;12.93;;
31210;SDS011;17836;50.948;3.946;2022-10-13T12:53:55;15.13;;;13.23;;
31210;SDS011;17836;50.948;3.946;2022-10-13T12:56:27;19.97;;;14.07;;
31210;SDS011;17836;50.948;3.946;2022-10-13T12:58:54;16.73;;;14.25;;
31210;SDS011;17836;50.948;3.946;2022-10-13T13:01:29;17.80;;;14.93;;
31210;SDS011;17836;50.948;3.946;2022-10-13T13:03:57;17.52;;;13.48;;
31210;SDS011;17836;50.948;3.946;2022-10-13T13:06:31;14.48;;;12.73;;
31210;SDS011;17836;50.948;3.946;2022-10-13T13:11:38;16.35;;;12.93;;
31210;SDS011;17836;50.948;3.946;2022-10-13T13:21:54;15.75;;;11.32;;
31210;SDS011;17836;50.948;3.946;2022-10-13T13:24:19;14.37;;;12.33;;
31210;SDS011;17836;50.948;3.946;2022-10-13T13:26:45;15.38;;;10.68;;
31210;SDS011;17836;50.948;3.946;2022-10-13T13:29:10;15.07;;;11.10;;
31210;SDS011;17836;50.948;3.946;2022-10-13T13:31:36;15.02;;;11.88;;
31210;SDS011;17836;50.948;3.946;2022-10-13T13:34:01;15.70;;;11.05;;
31210;SDS011;17836;50.948;3.946;2022-10-13T13:36:28;16.63;;;11.53;;
31210;SDS011;17836;50.948;3.946;2022-10-13T13:38:54;16.50;;;12.20;;
31210;SDS011;17836;50.948;3.946;2022-10-13T13:41:20;14.32;;;11.15;;
31210;SDS011;17836;50.948;3.946;2022-10-13T13:46:14;13.73;;;11.73;;
31210;SDS011;17836;50.948;3.946;2022-10-13T13:48:40;13.55;;;11.52;;
31210;SDS011;17836;50.948;3.946;2022-10-13T13:51:07;19.70;;;12.05;;
31210;SDS011;17836;50.948;3.946;2022-10-13T13:53:32;16.02;;;13.32;;
31210;SDS011;17836;50.948;3.946;2022-10-13T13:55:57;16.60;;;14.17;;
31210;SDS011;17836;50.948;3.946;2022-10-13T13:58:23;17.50;;;12.73;;
31210;SDS011;17836;50.948;3.946;2022-10-13T14:00:48;17.93;;;12.43;;
31210;SDS011;17836;50.948;3.946;2022-10-13T14:03:14;16.27;;;12.98;;
31210;SDS011;17836;50.948;3.946;2022-10-13T14:05:39;16.53;;;13.80;;
31210;SDS011;17836;50.948;3.946;2022-10-13T14:08:05;14.20;;;12.05;;
31210;SDS011;17836;50.948;3.946;2022-10-13T14:10:31;23.90;;;13.32;;
31210;SDS011;17836;50.948;3.946;2022-10-13T14:12:56;18.13;;;12.87;;
31210;SDS011;17836;50.948;3.946;2022-10-13T14:15:21;21.00;;;12.97;;
31210;SDS011;17836;50.948;3.946;2022-10-13T14:17:47;23.42;;;13.95;;
31210;SDS011;17836;50.948;3.946;2022-10-13T14:20:13;18.25;;;12.30;;
31210;SDS011;17836;50.948;3.946;2022-10-13T14:22:38;22.02;;;13.50;;
31210;SDS011;17836;50.948;3.946;2022-10-13T14:25:05;21.38;;;14.25;;
31210;SDS011;17836;50.948;3.946;2022-10-13T14:27:31;24.02;;;13.02;;
31210;SDS011;17836;50.948;3.946;2022-10-13T14:29:56;16.95;;;13.35;;
31210;SDS011;17836;50.948;3.946;2022-10-13T14:32:24;20.17;;;13.65;;
31210;SDS011;17836;50.948;3.946;2022-10-13T14:34:50;20.52;;;14.20;;
31210;SDS011;17836;50.948;3.946;2022-10-13T14:37:16;20.55;;;14.27;;
31210;SDS011;17836;50.948;3.946;2022-10-13T14:39:41;20.65;;;14.55;;
31210;SDS011;17836;50.948;3.946;2022-10-13T14:42:07;16.40;;;13.07;;
31210;SDS011;17836;50.948;3.946;2022-10-13T14:44:32;18.55;;;13.65;;
31210;SDS011;17836;50.948;3.946;2022-10-13T14:46:57;25.48;;;15.15;;
31210;SDS011;17836;50.948;3.946;2022-10-13T14:49:23;21.77;;;15.10;;
31210;SDS011;17836;50.948;3.946;2022-10-13T14:51:48;20.87;;;15.13;;
31210;SDS011;17836;50.948;3.946;2022-10-13T14:54:13;18.70;;;14.33;;
31210;SDS011;17836;50.948;3.946;2022-10-13T14:56:38;26.70;;;16.07;;
31210;SDS011;17836;50.948;3.946;2022-10-13T14:59:04;25.40;;;16.20;;
31210;SDS011;17836;50.948;3.946;2022-10-13T15:01:30;26.35;;;16.88;;
31210;SDS011;17836;50.948;3.946;2022-10-13T15:03:55;23.80;;;15.32;;
31210;SDS011;17836;50.948;3.946;2022-10-13T15:06:22;26.88;;;16.65;;
31210;SDS011;17836;50.948;3.946;2022-10-13T15:08:48;26.42;;;17.48;;
31210;SDS011;17836;50.948;3.946;2022-10-13T15:11:14;27.73;;;17.17;;
31210;SDS011;17836;50.948;3.946;2022-10-13T15:13:40;25.75;;;17.73;;
31210;SDS011;17836;50.948;3.946;2022-10-13T15:16:05;30.10;;;17.27;;
31210;SDS011;17836;50.948;3.946;2022-10-13T15:18:32;28.60;;;17.63;;
31210;SDS011;17836;50.948;3.946;2022-10-13T15:20:57;26.92;;;17.95;;
31210;SDS011;17836;50.948;3.946;2022-10-13T15:23:23;26.67;;;16.70;;
31210;SDS011;17836;50.948;3.946;2022-10-13T15:25:52;27.87;;;16.77;;
31210;SDS011;17836;50.948;3.946;2022-10-13T15:28:18;22.45;;;17.63;;
31210;SDS011;17836;50.948;3.946;2022-10-13T15:30:44;27.42;;;16.98;;
31210;SDS011;17836;50.948;3.946;2022-10-13T15:33:09;28.00;;;17.23;;
31210;SDS011;17836;50.948;3.946;2022-10-13T15:35:34;27.80;;;17.57;;
31210;SDS011;17836;50.948;3.946;2022-10-13T15:38:00;25.80;;;17.13;;
31210;SDS011;17836;50.948;3.946;2022-10-13T15:40:25;24.03;;;17.67;;
31210;SDS011;17836;50.948;3.946;2022-10-13T15:42:51;29.23;;;17.75;;
31210;SDS011;17836;50.948;3.946;2022-10-13T15:45:16;21.65;;;17.25;;
31210;SDS011;17836;50.948;3.946;2022-10-13T15:47:42;23.65;;;16.10;;
31210;SDS011;17836;50.948;3.946;2022-10-13T15:50:07;24.77;;;15.98;;
31210;SDS011;17836;50.948;3.946;2022-10-13T15:52:39;23.35;;;15.77;;
31210;SDS011;17836;50.948;3.946;2022-10-13T15:55:06;23.33;;;15.50;;
31210;SDS011;17836;50.948;3.946;2022-10-13T15:57:31;23.33;;;16.13;;
31210;SDS011;17836;50.948;3.946;2022-10-13T15:59:57;20.05;;;15.15;;